createdAt,value
2022-10-01T10:27:29.287Z,2.10
2022-10-01T10:30:16.085Z,2.53
2022-10-01T10:32:44.076Z,2.20
2022-10-01T10:35:14.984Z,2.63
2022-10-01T10:37:48.301Z,2.67
2022-10-01T10:40:24.584Z,2.25
2022-10-01T10:42:56.092Z,1.88
2022-10-01T10:45:37.289Z,2.40
2022-10-01T10:48:08.065Z,2.25
2022-10-01T10:50:40.983Z,2.53
2022-10-01T10:53:22.542Z,2.07
2022-10-01T10:55:56.293Z,2.38
2022-10-01T10:58:26.733Z,2.10
2022-10-01T11:00:58.010Z,1.70
2022-10-01T11:03:28.281Z,1.97
2022-10-01T11:06:02.565Z,1.65
2022-10-01T11:08:29.049Z,1.83
2022-10-01T11:11:23.260Z,2.10
2022-10-01T11:14:45.365Z,2.38
2022-10-01T11:17:27.240Z,1.95
2022-10-01T11:20:11.446Z,1.93
2022-10-01T11:23:00.779Z,1.90
2022-10-01T11:25:52.407Z,1.60
2022-10-01T11:28:27.776Z,1.98
2022-10-01T11:31:24.661Z,1.77
2022-10-01T11:33:55.599Z,1.90
2022-10-01T11:36:29.148Z,2.10
2022-10-01T11:39:02.665Z,1.40
2022-10-01T11:41:41.384Z,1.45
2022-10-01T11:44:16.415Z,1.52
2022-10-01T11:46:54.042Z,2.00
2022-10-01T11:49:38.142Z,1.52
2022-10-01T11:52:25.043Z,1.48
2022-10-01T11:54:56.216Z,1.30
2022-10-01T11:57:42.750Z,1.80
2022-10-01T12:00:13.244Z,1.42
2022-10-01T12:02:56.809Z,1.17
2022-10-01T12:05:29.075Z,1.10
2022-10-01T12:08:27.915Z,1.65
2022-10-01T12:11:05.523Z,1.50
2022-10-01T12:13:37.474Z,1.10
2022-10-01T12:16:27.586Z,1.48
2022-10-01T12:19:21.426Z,1.27
2022-10-01T12:21:59.714Z,1.10
2022-10-01T12:24:33.957Z,1.10
2022-10-01T12:27:42.220Z,1.67
2022-10-01T12:30:24.651Z,1.10
2022-10-01T12:33:14.375Z,1.10
2022-10-01T12:36:07.976Z,0.82
2022-10-01T12:38:47.117Z,1.00
2022-10-01T12:41:41.949Z,2.00
2022-10-01T12:44:36.994Z,2.17
2022-10-01T12:47:42.831Z,2.70
2022-10-01T12:50:27.081Z,2.75
2022-10-01T12:53:05.144Z,2.20
2022-10-01T12:55:46.310Z,2.75
2022-10-01T12:58:34.064Z,5.00
2022-10-01T13:01:11.074Z,19.57
2022-10-01T13:04:03.500Z,35.65
2022-10-01T13:06:48.054Z,113.95
2022-10-01T13:09:50.210Z,65.27
2022-10-01T13:12:35.707Z,176.38
2022-10-01T13:15:04.072Z,197.90
2022-10-01T13:17:46.757Z,247.25
2022-10-01T13:20:33.728Z,258.27
2022-10-01T13:23:09.600Z,266.35
2022-10-01T13:26:04.389Z,293.63
2022-10-01T13:28:51.950Z,278.57
2022-10-01T13:31:21.553Z,276.00
2022-10-01T13:33:57.397Z,273.48
2022-10-01T13:36:33.253Z,274.87
2022-10-01T13:38:59.926Z,274.02
2022-10-01T13:41:35.935Z,265.65
2022-10-01T13:44:08.174Z,269.20
2022-10-01T13:46:48.051Z,268.60
2022-10-01T13:49:22.349Z,261.70
2022-10-01T13:51:48.651Z,257.33
2022-10-01T13:54:47.308Z,251.60
2022-10-01T13:57:31.932Z,237.48
2022-10-01T14:00:22.950Z,241.07
2022-10-01T14:03:42.023Z,239.70
2022-10-01T14:06:17.644Z,231.50
